Airfield :











YOU CAN JOIN US ON...

 
LOGIN :

Register | Disclaimer

   EN    FR    IT 

 









Legend :    VFR   Marginal VFR   IFR   Intensive IFR   Very Intensive IFR
Visi :
Ceiling :
>= 8 km
>= 3000ft
5 to 8 km
1000 to 3000 ft
1500m to 5 km
500 to 1000 ft
800 to 1500m
200 to 500 ft
< 800m
< 200 ft
Symbols :   Thunderstorms  Fog  Heavy snow  Heavy precipitations  Wind > 20 kt






- Airport Elevation : 2205 ft


KVGT - North Las Vegas

CURRENT METAR :
  • 291653Z 13007KT 10SM CLR 36/01 A2995 RMK AO2 SLP124 T03560006

EXPIRED METARs :
  • 291553Z 00000KT 10SM CLR 33/01 A2996 RMK AO2 SLP127 T03330011
  • 291453Z 02003KT 10SM CLR 32/03 A2995 RMK AO2 SLP125 T03170028 51010

TAF KVGT
Valid from the 29 at 12:00 until the 30 at 12:00 UTC


291120Z 2912/3012 VRB05KT P6SM SKC
FM291900 17015G25KT P6SM FEW150
FM300300 20010KT P6SM SCT250
KZLA FIR / North America



MET'MAP, your aeronautical weather chart ! - Copyright ORBIFLY December 2007 - Disclaimer

ORBIFLY MET'MAP TEAM :

Programming & Development : Alexandra Zaïnal
Concept & original design : Baudouin d'Aumeries
Assistance for programming : Marc-Olivier Méhu
Technical & hardware support : Manuel Goepfert

Contact : metmap@orbifly.com




SOURCES & CREDITS :

   NOAA       Earth
Advisory